Zim Ontario — 9HA3594 — position and weather

sailwx.info

Track history (hours):
 
Tides and Currents Weather Stations Pressure Air Temp Water Temp Dewpoint Dewpoint Depression Visibility Wind Speed Wind Dir Waves Ship Positions

Zim Ontario

Last reported at 2017-Sep-21 05:01 UTC. Time now 2017-Sep-21 05:05 UTC.
Position N 32°05' W 080°59'.

Length 274 m; draft 9.7 m.

Type: Ship. MMSI: 229772000.

Date/timePositionNaut miles runAvg speedWind from/ knotsBaromVisibWave heightAir tempDewpointWater temp
2017-Sep-21 05:01N 32°05' W 080°59'4 8.7
2017-Sep-21 04:31N 32°05' W 081°04'3 5.9
2017-Sep-21 04:01N 32°06' W 081°07'2 3.1
2017-Sep-21 03:31N 32°07' W 081°08'0 0.0
2017-Sep-21 03:01N 32°07' W 081°08'0 0.0
2017-Sep-21 02:30N 32°07' W 081°08'0 0.0
2017-Sep-21 01:56N 32°07' W 081°08'0 0.0
2017-Sep-21 01:19N 32°07' W 081°08'0 0.0
2017-Sep-21 00:49N 32°07' W 081°08'0 0.0
2017-Sep-21 00:25N 32°07' W 081°08'0 0.0
2017-Sep-20 23:49N 32°07' W 081°08'0 0.0
2017-Sep-20 23:25N 32°07' W 081°08'0 0.0
2017-Sep-20 23:00N 32°07' W 081°08'0 0.0
2017-Sep-20 22:30N 32°07' W 081°08'0 0.0
2017-Sep-20 22:00N 32°07' W 081°08'0 0.0
2017-Sep-20 21:30N 32°07' W 081°08'0 0.0
2017-Sep-20 21:00N 32°07' W 081°08'0 0.0
2017-Sep-20 20:23N 32°07' W 081°08'0 0.0
2017-Sep-20 19:59N 32°07' W 081°08'0 0.0
2017-Sep-20 19:29N 32°07' W 081°08'0 0.0
2017-Sep-20 18:59N 32°07' W 081°08'0 0.0
2017-Sep-20 18:28N 32°07' W 081°08'0 0.0
2017-Sep-20 17:58N 32°07' W 081°08'0 0.0
2017-Sep-20 17:28N 32°07' W 081°08'0 0.0
2017-Sep-20 16:58N 32°07' W 081°08'0 0.0
2017-Sep-20 16:28N 32°07' W 081°08'0 0.0
2017-Sep-20 15:57N 32°07' W 081°08'0 0.0
2017-Sep-20 15:27N 32°07' W 081°08'0 0.0
2017-Sep-20 14:57N 32°07' W 081°08'0 0.0
2017-Sep-20 13:56N 32°07' W 081°08'0 0.0
2017-Sep-20 13:26N 32°07' W 081°08'0 0.0
2017-Sep-20 12:56N 32°07' W 081°08'0 0.0
2017-Sep-20 12:20N 32°07' W 081°08'0 0.0
2017-Sep-20 11:56N 32°07' W 081°08'0 0.0
2017-Sep-20 11:19N 32°07' W 081°08'0 0.0
2017-Sep-20 10:55N 32°07' W 081°08'0 0.0
2017-Sep-20 10:25N 32°07' W 081°08'0 0.0
2017-Sep-20 09:58N 32°07' W 081°08'0 0.0
2017-Sep-20 09:25N 32°07' W 081°08'0 0.0
2017-Sep-20 09:00N 32°07' W 081°08'0 0.0
2017-Sep-20 08:30N 32°07' W 081°08'0 0.0
2017-Sep-20 08:01N 32°07' W 081°08'0 0.9
2017-Sep-20 07:30N 32°08' W 081°08'2 3.7
2017-Sep-20 07:00N 32°06' W 081°07'2 4.9
2017-Sep-20 06:30N 32°05' W 081°05'4 7.2
2017-Sep-20 06:00N 32°06' W 081°01'5 9.8
2017-Sep-20 05:31N 32°03' W 080°56'4 8.8
2017-Sep-20 05:00N 32°02' W 080°51'612.6
2017-Sep-20 04:30N 31°59' W 080°45'4 8.6
2017-Sep-20 04:00N 31°57' W 080°40'4 8.3
2017-Sep-20 03:30N 31°58' W 080°36'5 9.7
2017-Sep-20 03:00N 31°59' W 080°30'1 1.3
2017-Sep-20 02:20N 31°59' W 080°29'0 0.1
2017-Sep-20 01:56N 31°59' W 080°29'0 0.1
2017-Sep-20 01:26N 31°59' W 080°29'0 0.1
2017-Sep-19 23:49N 31°59' W 080°29'0 0.0
2017-Sep-19 20:42N 31°59' W 080°29'0 0.1
2017-Sep-19 20:30N 31°59' W 080°29'0 0.0
2017-Sep-19 20:00N 31°59' W 080°29'0 0.0
2017-Sep-19 19:29N 31°59' W 080°29'0 0.1
2017-Sep-19 18:59N 31°59' W 080°29'0 0.1
2017-Sep-19 18:29N 31°59' W 080°29'0 0.2
2017-Sep-19 18:00N 31°59' W 080°29'0 0.1
2017-Sep-19 17:29N 31°59' W 080°29'0 0.0
2017-Sep-19 16:58N 31°59' W 080°29'0 0.0
2017-Sep-19 16:28N 31°59' W 080°29'0 0.0
2017-Sep-19 15:58N 31°59' W 080°29'0 0.0
2017-Sep-19 15:28N 31°59' W 080°29'0 0.0
2017-Sep-19 14:57N 31°59' W 080°29'0 0.0
2017-Sep-19 14:27N 31°59' W 080°29'0 0.0
2017-Sep-19 13:57N 31°59' W 080°29'0 0.0
2017-Sep-19 13:27N 31°59' W 080°29'0 0.1
2017-Sep-19 12:57N 31°59' W 080°29'0 0.2
2017-Sep-19 12:26N 31°59' W 080°29'0 0.3
2017-Sep-19 11:56N 31°59' W 080°29'0 0.1
2017-Sep-19 11:26N 31°59' W 080°29'0 0.0
2017-Sep-19 10:50N 31°59' W 080°29'0 0.0
2017-Sep-19 10:26N 31°59' W 080°29'0 0.0
2017-Sep-19 09:31N 31°59' W 080°29'0 0.0
2017-Sep-19 09:19N 31°59' W 080°29'0 0.0
2017-Sep-19 08:55N 31°59' W 080°29'0 0.0
2017-Sep-19 08:25N 31°59' W 080°29'0 0.0
2017-Sep-19 08:00N 31°59' W 080°29'0 0.0
2017-Sep-19 07:30N 31°59' W 080°29'0 0.0
2017-Sep-19 07:00N 31°59' W 080°29'0 0.0
2017-Sep-19 06:30N 31°59' W 080°29'0 0.2
2017-Sep-19 06:00N 31°59' W 080°29'0 0.2
2017-Sep-19 05:29N 31°59' W 080°29'0 0.1
2017-Sep-19 04:59N 31°59' W 080°29'0 0.1
2017-Sep-19 04:29N 31°59' W 080°29'0 0.0
2017-Sep-19 03:59N 31°59' W 080°29'0 0.0
2017-Sep-19 03:29N 31°59' W 080°29'0 0.0
2017-Sep-19 02:58N 31°59' W 080°29'0 0.1
2017-Sep-19 02:28N 31°59' W 080°29'0 0.1
2017-Sep-19 01:52N 31°59' W 080°29'0 0.2
2017-Sep-19 01:28N 31°59' W 080°29'0 0.2
2017-Sep-19 00:57N 31°59' W 080°29'0 0.1
2017-Sep-19 00:27N 31°59' W 080°29'0 0.0
2017-Sep-18 23:57N 31°59' W 080°29'0 0.0
2017-Sep-18 23:27N 31°59' W 080°29'0 0.0
2017-Sep-18 22:51N 31°59' W 080°29'0 0.0
2017-Sep-18 22:26N 31°59' W 080°29'0 0.0
2017-Sep-18 21:50N 31°59' W 080°29'0 0.0
2017-Sep-18 21:26N 31°59' W 080°29'0 0.0
2017-Sep-18 20:56N 31°59' W 080°29'0 0.0
2017-Sep-18 20:25N 31°59' W 080°29'0 0.0
2017-Sep-18 19:55N 31°59' W 080°29'0 0.0
2017-Sep-18 19:25N 31°59' W 080°29'0 0.0
2017-Sep-18 18:55N 31°59' W 080°29'0 0.0
2017-Sep-18 18:25N 31°59' W 080°29'0 0.1
2017-Sep-18 18:00N 31°59' W 080°29'0 0.1
2017-Sep-18 17:24N 31°59' W 080°29'0 0.1
2017-Sep-18 17:00N 31°59' W 080°29'0 0.1
2017-Sep-18 16:30N 31°59' W 080°29'0 0.0
2017-Sep-18 16:00N 31°59' W 080°29'0 0.0
2017-Sep-18 15:17N 31°59' W 080°29'0 0.0
2017-Sep-18 14:59N 31°59' W 080°29'0 0.0
2017-Sep-18 13:10N 31°59' W 080°29'0 0.0
2017-Sep-18 12:58N 31°59' W 080°29'0 0.0
2017-Sep-18 12:28N 31°59' W 080°29'0 0.1
2017-Sep-18 12:00N 31°59' W 080°29'0 0.0
2017-Sep-18 11:29N 31°59' W 080°29'0 0.1
2017-Sep-18 11:00N 31°59' W 080°29'2 4.6
2017-Sep-18 10:30N 31°57' W 080°27'3 6.8
2017-Sep-18 10:00N 31°58' W 080°24'5 9.7
2017-Sep-18 09:30N 32°02' W 080°20'612.0
2017-Sep-18 09:00N 32°06' W 080°15'612.8
2017-Sep-18 08:30N 32°10' W 080°08'252 6.1
2017-Sep-16 15:29N 34°29' W 075°58'712.1
2017-Sep-16 14:52N 34°34' W 075°52'411.3
2017-Sep-16 14:30N 34°37' W 075°48'811.8
2017-Sep-16 13:48N 34°43' W 075°41'311.6
2017-Sep-16 13:30N 34°46' W 075°39'711.5
2017-Sep-16 12:55N 34°51' W 075°33'511.2
2017-Sep-16 12:27N 34°55' W 075°28'510.9
2017-Sep-16 12:00N 34°58' W 075°24'1711.1
2017-Sep-16 10:26N 35°12' W 075°12'3712.5
2017-Sep-16 07:29N 35°49' W 075°18'712.5
2017-Sep-16 06:54N 35°56' W 075°19'512.6
2017-Sep-16 06:30N 36°01' W 075°20'712.7
2017-Sep-16 05:56N 36°08' W 075°22'712.6
2017-Sep-16 05:21N 36°15' W 075°24'412.6
2017-Sep-16 05:00N 36°19' W 075°26'612.6
2017-Sep-16 04:30N 36°25' W 075°28'712.7
2017-Sep-16 03:59N 36°31' W 075°31'612.7
2017-Sep-16 03:30N 36°37' W 075°35'612.7
2017-Sep-16 03:00N 36°42' W 075°39'612.7
2017-Sep-16 02:30N 36°47' W 075°44'612.8
2017-Sep-16 02:00N 36°51' W 075°50'612.4
2017-Sep-16 01:30N 36°55' W 075°56'611.4
2017-Sep-16 00:59N 36°57' W 076°03'1215.9
2017-Sep-16 00:13N 36°60' W 076°18'312.7
2017-Sep-16 00:00N 36°58' W 076°20'5 9.5
2017-Sep-15 23:30N 36°53' W 076°20'2 3.3
2017-Sep-15 23:00N 36°51' W 076°19'0 0.0
2017-Sep-15 22:30N 36°51' W 076°19'0 0.0
2017-Sep-15 21:59N 36°51' W 076°19'0 0.0
2017-Sep-15 21:28N 36°51' W 076°19'0 0.0
2017-Sep-15 20:55N 36°51' W 076°19'0 0.0
2017-Sep-15 20:28N 36°51' W 076°19'0 0.0
2017-Sep-15 19:58N 36°51' W 076°19'0 0.0
2017-Sep-15 19:28N 36°51' W 076°19'0 0.0
2017-Sep-15 19:00N 36°51' W 076°19'0 0.0
2017-Sep-15 18:30N 36°51' W 076°19'0 0.0
2017-Sep-15 18:00N 36°51' W 076°19'0 0.0
2017-Sep-15 17:27N 36°51' W 076°19'0 0.0
2017-Sep-15 16:53N 36°51' W 076°19'0 0.0
2017-Sep-15 16:29N 36°51' W 076°19'0 0.0
2017-Sep-15 15:59N 36°51' W 076°19'0 0.0
2017-Sep-15 15:26N 36°51' W 076°19'0 0.0
2017-Sep-15 14:59N 36°51' W 076°19'0 0.0
2017-Sep-15 14:22N 36°51' W 076°19'0 0.0
2017-Sep-15 13:58N 36°51' W 076°19'0 0.0
2017-Sep-15 13:28N 36°51' W 076°19'0 0.0
2017-Sep-15 12:58N 36°51' W 076°19'0 0.0
2017-Sep-15 12:28N 36°51' W 076°19'0 0.0
2017-Sep-15 12:00N 36°51' W 076°19'0 0.0
2017-Sep-15 11:27N 36°51' W 076°19'0 0.0
2017-Sep-15 11:00N 36°51' W 076°19'0 0.0
2017-Sep-15 10:30N 36°51' W 076°19'1 2.3
2017-Sep-15 10:00N 36°53' W 076°20'4 8.0
2017-Sep-15 09:30N 36°57' W 076°20'611.7
2017-Sep-15 08:59N 37°00' W 076°14'917.8
2017-Sep-15 08:30N 36°58' W 076°04'714.6
2017-Sep-15 08:00N 36°56' W 075°56'4 8.7
2017-Sep-15 07:30N 36°53' W 075°52'12817.5
2017-Sep-15 00:11N 38°34' W 074°13'422.0
2017-Sep-15 00:00N 38°38' W 074°12'1622.0
2017-Sep-14 23:16N 38°53' W 074°07'621.8
2017-Sep-14 23:00N 38°59' W 074°05'1121.7
2017-Sep-14 22:30N 39°09' W 074°02'1121.5
2017-Sep-14 22:00N 39°20' W 073°58'1121.5
2017-Sep-14 21:30N 39°30' W 073°55'1121.2
2017-Sep-14 21:00N 39°41' W 073°52'1020.8
2017-Sep-14 20:30N 39°51' W 073°52'1320.9
2017-Sep-14 19:53N 40°04' W 073°50'820.7
2017-Sep-14 19:30N 40°12' W 073°49'918.6
2017-Sep-14 19:00N 40°21' W 073°49'713.7
2017-Sep-14 18:31N 40°28' W 073°50'612.0
2017-Sep-14 18:00N 40°30' W 073°58'612.6
2017-Sep-14 17:30N 40°35' W 074°02'4 8.5
2017-Sep-14 17:00N 40°39' W 074°06'2 4.8
2017-Sep-14 16:30N 40°39' W 074°09'1 2.1
2017-Sep-14 16:00N 40°40' W 074°08'0 0.0
2017-Sep-14 15:30N 40°40' W 074°09'0 0.0
2017-Sep-14 15:00N 40°40' W 074°09'0 0.0
2017-Sep-14 14:30N 40°40' W 074°09'0 0.0
2017-Sep-14 13:56N 40°40' W 074°09'0 0.0
2017-Sep-14 13:26N 40°40' W 074°09'0 0.0
2017-Sep-14 12:59N 40°40' W 074°09'0 0.0
2017-Sep-14 12:29N 40°40' W 074°09'0 0.0
2017-Sep-14 11:59N 40°40' W 074°09'0 0.0
2017-Sep-14 11:25N 40°40' W 074°09'0 0.0
2017-Sep-14 10:58N 40°40' W 074°09'0 0.0
2017-Sep-14 10:28N 40°40' W 074°09'0 0.0
2017-Sep-14 09:58N 40°40' W 074°09'0 0.0
2017-Sep-14 09:30N 40°40' W 074°09'0 0.0
2017-Sep-14 09:00N 40°40' W 074°09'0 0.0
2017-Sep-14 08:30N 40°40' W 074°09'0 0.0
2017-Sep-14 08:00N 40°40' W 074°09'0 0.0
2017-Sep-14 07:30N 40°40' W 074°09'0 0.0
2017-Sep-14 06:56N 40°40' W 074°09'0 0.0
2017-Sep-14 06:29N 40°40' W 074°09'0 0.0
2017-Sep-14 05:59N 40°40' W 074°09'0 0.0
2017-Sep-14 05:29N 40°40' W 074°09'0 0.0
2017-Sep-14 04:55N 40°40' W 074°09'0 0.0
2017-Sep-14 04:28N 40°40' W 074°09'0 0.0
2017-Sep-14 03:58N 40°40' W 074°09'0 0.0
2017-Sep-14 03:25N 40°40' W 074°09'0 0.0
2017-Sep-14 02:58N 40°40' W 074°09'0 0.0
2017-Sep-14 02:27N 40°40' W 074°09'0 0.0
2017-Sep-14 01:57N 40°40' W 074°09'0 0.0
2017-Sep-14 01:30N 40°40' W 074°09'0 0.0
2017-Sep-14 00:48N 40°40' W 074°09'0 0.0
2017-Sep-14 00:30N 40°40' W 074°09'0 0.0
2017-Sep-13 23:59N 40°40' W 074°09'0 0.0
2017-Sep-13 23:29N 40°40' W 074°09'0 0.0
2017-Sep-13 22:59N 40°40' W 074°09'0 0.0
2017-Sep-13 22:29N 40°40' W 074°09'0 0.0
2017-Sep-13 21:59N 40°40' W 074°09'0 0.0
2017-Sep-13 21:28N 40°40' W 074°09'0 0.0
2017-Sep-13 20:58N 40°40' W 074°09'0 0.0
2017-Sep-13 20:22N 40°40' W 074°09'0 0.0
2017-Sep-13 19:58N 40°40' W 074°09'0 0.0
2017-Sep-13 19:30N 40°40' W 074°09'0 0.0
2017-Sep-13 18:54N 40°40' W 074°09'0 0.0
2017-Sep-13 18:30N 40°40' W 074°09'0 0.0
2017-Sep-13 18:00N 40°40' W 074°09'0 0.0
2017-Sep-13 17:30N 40°40' W 074°09'0 0.0
2017-Sep-13 16:56N 40°40' W 074°09'0 0.0
2017-Sep-13 16:29N 40°40' W 074°09'0 0.0
2017-Sep-13 16:00N 40°40' W 074°09'2 3.1
2017-Sep-13 15:30N 40°39' W 074°09'3 6.2
2017-Sep-13 15:00N 40°39' W 074°05'3 5.4
2017-Sep-13 14:30N 40°37' W 074°03'3 6.8
2017-Sep-13 14:01N 40°34' W 074°02'612.3
2017-Sep-13 13:31N 40°30' W 073°56'612.2
2017-Sep-13 13:00N 40°27' W 073°48'3 6.0
2017-Sep-13 12:31N 40°27' W 073°44'4 8.8
2017-Sep-13 12:00N 40°28' W 073°38'510.3
2017-Sep-13 11:30N 40°28' W 073°32'1 1.7
2017-Sep-13 11:00N 40°28' W 073°31'0 0.3
2017-Sep-13 10:30N 40°28' W 073°30'1 1.8
2017-Sep-13 10:00N 40°28' W 073°29'4 8.7
2017-Sep-13 09:30N 40°28' W 073°24'4 8.5
2017-Sep-13 09:00N 40°29' W 073°18'0 0.5
2017-Sep-13 08:30N 40°29' W 073°18'1 2.1
2017-Sep-13 08:00N 40°29' W 073°16'5 9.4
2017-Sep-13 07:31N 40°29' W 073°10'510.8
2017-Sep-13 07:00N 40°30' W 073°03'611.0
2017-Sep-13 06:30N 40°30' W 072°56'611.3
2017-Sep-13 06:00N 40°30' W 072°48'611.2
2017-Sep-13 05:31N 40°30' W 072°41'611.5
2017-Sep-13 05:00N 40°30' W 072°33'611.7
2017-Sep-13 04:30N 40°30' W 072°26'611.6
2017-Sep-13 04:00N 40°30' W 072°18'611.9
2017-Sep-13 03:30N 40°30' W 072°10'611.9
2017-Sep-13 03:01N 40°31' W 072°02'611.9
2017-Sep-13 02:30N 40°31' W 071°55'611.7
2017-Sep-13 02:01N 40°31' W 071°47'611.8
2017-Sep-13 01:31N 40°31' W 071°39'611.7
2017-Sep-13 01:01N 40°32' W 071°32'611.6
2017-Sep-13 00:30N 40°31' W 071°24'611.5
2017-Sep-13 00:00N 40°32' W 071°16'611.7
2017-Sep-12 23:30N 40°32' W 071°09'611.5
2017-Sep-12 23:00N 40°32' W 071°01'611.5
2017-Sep-12 22:30N 40°32' W 070°54'4 8.7
2017-Sep-12 22:00N 40°32' W 070°48'0 0.6
2017-Sep-12 21:30N 40°33' W 070°48'3 5.9
2017-Sep-12 21:00N 40°33' W 070°44'1511.6
2017-Sep-12 19:42N 40°33' W 070°24'2 9.0
2017-Sep-12 19:30N 40°33' W 070°21'6012.0
2017-Sep-12 14:30N 40°33' W 069°03'812.2
2017-Sep-12 13:51N 40°31' W 068°52'  
Track history (hours):
 
Tides and Currents Weather Stations Pressure Air Temp Water Temp Dewpoint Dewpoint Depression Visibility Wind Speed Wind Dir Waves Ship Positions

Zim Ontario

Last reported at 2017-Sep-21 05:01 UTC. Time now 2017-Sep-21 05:05 UTC.
Position N 32°05' W 080°59'.

Length 274 m; draft 9.7 m.

Type: Ship. MMSI: 229772000.

Date/timePositionNaut miles runAvg speedWind from/ knotsBaromVisibWave heightAir tempDewpointWater temp
2017-Sep-21 05:01N 32°05' W 080°59'4 8.7
2017-Sep-21 04:31N 32°05' W 081°04'3 5.9
2017-Sep-21 04:01N 32°06' W 081°07'2 3.1
2017-Sep-21 03:31N 32°07' W 081°08'0 0.0
2017-Sep-21 03:01N 32°07' W 081°08'0 0.0
2017-Sep-21 02:30N 32°07' W 081°08'0 0.0
2017-Sep-21 01:56N 32°07' W 081°08'0 0.0
2017-Sep-21 01:19N 32°07' W 081°08'0 0.0
2017-Sep-21 00:49N 32°07' W 081°08'0 0.0
2017-Sep-21 00:25N 32°07' W 081°08'0 0.0
2017-Sep-20 23:49N 32°07' W 081°08'0 0.0
2017-Sep-20 23:25N 32°07' W 081°08'0 0.0
2017-Sep-20 23:00N 32°07' W 081°08'0 0.0
2017-Sep-20 22:30N 32°07' W 081°08'0 0.0
2017-Sep-20 22:00N 32°07' W 081°08'0 0.0
2017-Sep-20 21:30N 32°07' W 081°08'0 0.0
2017-Sep-20 21:00N 32°07' W 081°08'0 0.0
2017-Sep-20 20:23N 32°07' W 081°08'0 0.0
2017-Sep-20 19:59N 32°07' W 081°08'0 0.0
2017-Sep-20 19:29N 32°07' W 081°08'0 0.0
2017-Sep-20 18:59N 32°07' W 081°08'0 0.0
2017-Sep-20 18:28N 32°07' W 081°08'0 0.0
2017-Sep-20 17:58N 32°07' W 081°08'0 0.0
2017-Sep-20 17:28N 32°07' W 081°08'0 0.0
2017-Sep-20 16:58N 32°07' W 081°08'0 0.0
2017-Sep-20 16:28N 32°07' W 081°08'0 0.0
2017-Sep-20 15:57N 32°07' W 081°08'0 0.0
2017-Sep-20 15:27N 32°07' W 081°08'0 0.0
2017-Sep-20 14:57N 32°07' W 081°08'0 0.0
2017-Sep-20 13:56N 32°07' W 081°08'0 0.0
2017-Sep-20 13:26N 32°07' W 081°08'0 0.0
2017-Sep-20 12:56N 32°07' W 081°08'0 0.0
2017-Sep-20 12:20N 32°07' W 081°08'0 0.0
2017-Sep-20 11:56N 32°07' W 081°08'0 0.0
2017-Sep-20 11:19N 32°07' W 081°08'0 0.0
2017-Sep-20 10:55N 32°07' W 081°08'0 0.0
2017-Sep-20 10:25N 32°07' W 081°08'0 0.0
2017-Sep-20 09:58N 32°07' W 081°08'0 0.0
2017-Sep-20 09:25N 32°07' W 081°08'0 0.0
2017-Sep-20 09:00N 32°07' W 081°08'0 0.0
2017-Sep-20 08:30N 32°07' W 081°08'0 0.0
2017-Sep-20 08:01N 32°07' W 081°08'0 0.9
2017-Sep-20 07:30N 32°08' W 081°08'2 3.7
2017-Sep-20 07:00N 32°06' W 081°07'2 4.9
2017-Sep-20 06:30N 32°05' W 081°05'4 7.2
2017-Sep-20 06:00N 32°06' W 081°01'5 9.8
2017-Sep-20 05:31N 32°03' W 080°56'4 8.8
2017-Sep-20 05:00N 32°02' W 080°51'612.6
2017-Sep-20 04:30N 31°59' W 080°45'4 8.6
2017-Sep-20 04:00N 31°57' W 080°40'4 8.3
2017-Sep-20 03:30N 31°58' W 080°36'5 9.7
2017-Sep-20 03:00N 31°59' W 080°30'1 1.3
2017-Sep-20 02:20N 31°59' W 080°29'0 0.1
2017-Sep-20 01:56N 31°59' W 080°29'0 0.1
2017-Sep-20 01:26N 31°59' W 080°29'0 0.1
2017-Sep-19 23:49N 31°59' W 080°29'0 0.0
2017-Sep-19 20:42N 31°59' W 080°29'0 0.1
2017-Sep-19 20:30N 31°59' W 080°29'0 0.0
2017-Sep-19 20:00N 31°59' W 080°29'0 0.0
2017-Sep-19 19:29N 31°59' W 080°29'0 0.1
2017-Sep-19 18:59N 31°59' W 080°29'0 0.1
2017-Sep-19 18:29N 31°59' W 080°29'0 0.2
2017-Sep-19 18:00N 31°59' W 080°29'0 0.1
2017-Sep-19 17:29N 31°59' W 080°29'0 0.0
2017-Sep-19 16:58N 31°59' W 080°29'0 0.0
2017-Sep-19 16:28N 31°59' W 080°29'0 0.0
2017-Sep-19 15:58N 31°59' W 080°29'0 0.0
2017-Sep-19 15:28N 31°59' W 080°29'0 0.0
2017-Sep-19 14:57N 31°59' W 080°29'0 0.0
2017-Sep-19 14:27N 31°59' W 080°29'0 0.0
2017-Sep-19 13:57N 31°59' W 080°29'0 0.0
2017-Sep-19 13:27N 31°59' W 080°29'0 0.1
2017-Sep-19 12:57N 31°59' W 080°29'0 0.2
2017-Sep-19 12:26N 31°59' W 080°29'0 0.3
2017-Sep-19 11:56N 31°59' W 080°29'0 0.1
2017-Sep-19 11:26N 31°59' W 080°29'0 0.0
2017-Sep-19 10:50N 31°59' W 080°29'0 0.0
2017-Sep-19 10:26N 31°59' W 080°29'0 0.0
2017-Sep-19 09:31N 31°59' W 080°29'0 0.0
2017-Sep-19 09:19N 31°59' W 080°29'0 0.0
2017-Sep-19 08:55N 31°59' W 080°29'0 0.0
2017-Sep-19 08:25N 31°59' W 080°29'0 0.0
2017-Sep-19 08:00N 31°59' W 080°29'0 0.0
2017-Sep-19 07:30N 31°59' W 080°29'0 0.0
2017-Sep-19 07:00N 31°59' W 080°29'0 0.0
2017-Sep-19 06:30N 31°59' W 080°29'0 0.2
2017-Sep-19 06:00N 31°59' W 080°29'0 0.2
2017-Sep-19 05:29N 31°59' W 080°29'0 0.1
2017-Sep-19 04:59N 31°59' W 080°29'0 0.1
2017-Sep-19 04:29N 31°59' W 080°29'0 0.0
2017-Sep-19 03:59N 31°59' W 080°29'0 0.0
2017-Sep-19 03:29N 31°59' W 080°29'0 0.0
2017-Sep-19 02:58N 31°59' W 080°29'0 0.1
2017-Sep-19 02:28N 31°59' W 080°29'0 0.1
2017-Sep-19 01:52N 31°59' W 080°29'0 0.2
2017-Sep-19 01:28N 31°59' W 080°29'0 0.2
2017-Sep-19 00:57N 31°59' W 080°29'0 0.1
2017-Sep-19 00:27N 31°59' W 080°29'0 0.0
2017-Sep-18 23:57N 31°59' W 080°29'0 0.0
2017-Sep-18 23:27N 31°59' W 080°29'0 0.0
2017-Sep-18 22:51N 31°59' W 080°29'0 0.0
2017-Sep-18 22:26N 31°59' W 080°29'0 0.0
2017-Sep-18 21:50N 31°59' W 080°29'0 0.0
2017-Sep-18 21:26N 31°59' W 080°29'0 0.0
2017-Sep-18 20:56N 31°59' W 080°29'0 0.0
2017-Sep-18 20:25N 31°59' W 080°29'0 0.0
2017-Sep-18 19:55N 31°59' W 080°29'0 0.0
2017-Sep-18 19:25N 31°59' W 080°29'0 0.0
2017-Sep-18 18:55N 31°59' W 080°29'0 0.0
2017-Sep-18 18:25N 31°59' W 080°29'0 0.1
2017-Sep-18 18:00N 31°59' W 080°29'0 0.1
2017-Sep-18 17:24N 31°59' W 080°29'0 0.1
2017-Sep-18 17:00N 31°59' W 080°29'0 0.1
2017-Sep-18 16:30N 31°59' W 080°29'0 0.0
2017-Sep-18 16:00N 31°59' W 080°29'0 0.0
2017-Sep-18 15:17N 31°59' W 080°29'0 0.0
2017-Sep-18 14:59N 31°59' W 080°29'0 0.0
2017-Sep-18 13:10N 31°59' W 080°29'0 0.0
2017-Sep-18 12:58N 31°59' W 080°29'0 0.0
2017-Sep-18 12:28N 31°59' W 080°29'0 0.1
2017-Sep-18 12:00N 31°59' W 080°29'0 0.0
2017-Sep-18 11:29N 31°59' W 080°29'0 0.1
2017-Sep-18 11:00N 31°59' W 080°29'2 4.6
2017-Sep-18 10:30N 31°57' W 080°27'3 6.8
2017-Sep-18 10:00N 31°58' W 080°24'5 9.7
2017-Sep-18 09:30N 32°02' W 080°20'612.0
2017-Sep-18 09:00N 32°06' W 080°15'612.8
2017-Sep-18 08:30N 32°10' W 080°08'252 6.1
2017-Sep-16 15:29N 34°29' W 075°58'712.1
2017-Sep-16 14:52N 34°34' W 075°52'411.3
2017-Sep-16 14:30N 34°37' W 075°48'811.8
2017-Sep-16 13:48N 34°43' W 075°41'311.6
2017-Sep-16 13:30N 34°46' W 075°39'711.5
2017-Sep-16 12:55N 34°51' W 075°33'511.2
2017-Sep-16 12:27N 34°55' W 075°28'510.9
2017-Sep-16 12:00N 34°58' W 075°24'1711.1
2017-Sep-16 10:26N 35°12' W 075°12'3712.5
2017-Sep-16 07:29N 35°49' W 075°18'712.5
2017-Sep-16 06:54N 35°56' W 075°19'512.6
2017-Sep-16 06:30N 36°01' W 075°20'712.7
2017-Sep-16 05:56N 36°08' W 075°22'712.6
2017-Sep-16 05:21N 36°15' W 075°24'412.6
2017-Sep-16 05:00N 36°19' W 075°26'612.6
2017-Sep-16 04:30N 36°25' W 075°28'712.7
2017-Sep-16 03:59N 36°31' W 075°31'612.7
2017-Sep-16 03:30N 36°37' W 075°35'612.7
2017-Sep-16 03:00N 36°42' W 075°39'612.7
2017-Sep-16 02:30N 36°47' W 075°44'612.8
2017-Sep-16 02:00N 36°51' W 075°50'612.4
2017-Sep-16 01:30N 36°55' W 075°56'611.4
2017-Sep-16 00:59N 36°57' W 076°03'1215.9
2017-Sep-16 00:13N 36°60' W 076°18'312.7
2017-Sep-16 00:00N 36°58' W 076°20'5 9.5
2017-Sep-15 23:30N 36°53' W 076°20'2 3.3
2017-Sep-15 23:00N 36°51' W 076°19'0 0.0
2017-Sep-15 22:30N 36°51' W 076°19'0 0.0
2017-Sep-15 21:59N 36°51' W 076°19'0 0.0
2017-Sep-15 21:28N 36°51' W 076°19'0 0.0
2017-Sep-15 20:55N 36°51' W 076°19'0 0.0
2017-Sep-15 20:28N 36°51' W 076°19'0 0.0
2017-Sep-15 19:58N 36°51' W 076°19'0 0.0
2017-Sep-15 19:28N 36°51' W 076°19'0 0.0
2017-Sep-15 19:00N 36°51' W 076°19'0 0.0
2017-Sep-15 18:30N 36°51' W 076°19'0 0.0
2017-Sep-15 18:00N 36°51' W 076°19'0 0.0
2017-Sep-15 17:27N 36°51' W 076°19'0 0.0
2017-Sep-15 16:53N 36°51' W 076°19'0 0.0
2017-Sep-15 16:29N 36°51' W 076°19'0 0.0
2017-Sep-15 15:59N 36°51' W 076°19'0 0.0
2017-Sep-15 15:26N 36°51' W 076°19'0 0.0
2017-Sep-15 14:59N 36°51' W 076°19'0 0.0
2017-Sep-15 14:22N 36°51' W 076°19'0 0.0
2017-Sep-15 13:58N 36°51' W 076°19'0 0.0
2017-Sep-15 13:28N 36°51' W 076°19'0 0.0
2017-Sep-15 12:58N 36°51' W 076°19'0 0.0
2017-Sep-15 12:28N 36°51' W 076°19'0 0.0
2017-Sep-15 12:00N 36°51' W 076°19'0 0.0
2017-Sep-15 11:27N 36°51' W 076°19'0 0.0
2017-Sep-15 11:00N 36°51' W 076°19'0 0.0
2017-Sep-15 10:30N 36°51' W 076°19'1 2.3
2017-Sep-15 10:00N 36°53' W 076°20'4 8.0
2017-Sep-15 09:30N 36°57' W 076°20'611.7
2017-Sep-15 08:59N 37°00' W 076°14'917.8
2017-Sep-15 08:30N 36°58' W 076°04'714.6
2017-Sep-15 08:00N 36°56' W 075°56'4 8.7
2017-Sep-15 07:30N 36°53' W 075°52'12817.5
2017-Sep-15 00:11N 38°34' W 074°13'422.0
2017-Sep-15 00:00N 38°38' W 074°12'1622.0
2017-Sep-14 23:16N 38°53' W 074°07'621.8
2017-Sep-14 23:00N 38°59' W 074°05'1121.7
2017-Sep-14 22:30N 39°09' W 074°02'1121.5
2017-Sep-14 22:00N 39°20' W 073°58'1121.5
2017-Sep-14 21:30N 39°30' W 073°55'1121.2
2017-Sep-14 21:00N 39°41' W 073°52'1020.8
2017-Sep-14 20:30N 39°51' W 073°52'1320.9
2017-Sep-14 19:53N 40°04' W 073°50'820.7
2017-Sep-14 19:30N 40°12' W 073°49'918.6
2017-Sep-14 19:00N 40°21' W 073°49'713.7
2017-Sep-14 18:31N 40°28' W 073°50'612.0
2017-Sep-14 18:00N 40°30' W 073°58'612.6
2017-Sep-14 17:30N 40°35' W 074°02'4 8.5
2017-Sep-14 17:00N 40°39' W 074°06'2 4.8
2017-Sep-14 16:30N 40°39' W 074°09'1 2.1
2017-Sep-14 16:00N 40°40' W 074°08'0 0.0
2017-Sep-14 15:30N 40°40' W 074°09'0 0.0
2017-Sep-14 15:00N 40°40' W 074°09'0 0.0
2017-Sep-14 14:30N 40°40' W 074°09'0 0.0
2017-Sep-14 13:56N 40°40' W 074°09'0 0.0
2017-Sep-14 13:26N 40°40' W 074°09'0 0.0
2017-Sep-14 12:59N 40°40' W 074°09'0 0.0
2017-Sep-14 12:29N 40°40' W 074°09'0 0.0
2017-Sep-14 11:59N 40°40' W 074°09'0 0.0
2017-Sep-14 11:25N 40°40' W 074°09'0 0.0
2017-Sep-14 10:58N 40°40' W 074°09'0 0.0
2017-Sep-14 10:28N 40°40' W 074°09'0 0.0
2017-Sep-14 09:58N 40°40' W 074°09'0 0.0
2017-Sep-14 09:30N 40°40' W 074°09'0 0.0
2017-Sep-14 09:00N 40°40' W 074°09'0 0.0
2017-Sep-14 08:30N 40°40' W 074°09'0 0.0
2017-Sep-14 08:00N 40°40' W 074°09'0 0.0
2017-Sep-14 07:30N 40°40' W 074°09'0 0.0
2017-Sep-14 06:56N 40°40' W 074°09'0 0.0
2017-Sep-14 06:29N 40°40' W 074°09'0 0.0
2017-Sep-14 05:59N 40°40' W 074°09'0 0.0
2017-Sep-14 05:29N 40°40' W 074°09'0 0.0
2017-Sep-14 04:55N 40°40' W 074°09'0 0.0
2017-Sep-14 04:28N 40°40' W 074°09'0 0.0
2017-Sep-14 03:58N 40°40' W 074°09'0 0.0
2017-Sep-14 03:25N 40°40' W 074°09'0 0.0
2017-Sep-14 02:58N 40°40' W 074°09'0 0.0
2017-Sep-14 02:27N 40°40' W 074°09'0 0.0
2017-Sep-14 01:57N 40°40' W 074°09'0 0.0
2017-Sep-14 01:30N 40°40' W 074°09'0 0.0
2017-Sep-14 00:48N 40°40' W 074°09'0 0.0
2017-Sep-14 00:30N 40°40' W 074°09'0 0.0
2017-Sep-13 23:59N 40°40' W 074°09'0 0.0
2017-Sep-13 23:29N 40°40' W 074°09'0 0.0
2017-Sep-13 22:59N 40°40' W 074°09'0 0.0
2017-Sep-13 22:29N 40°40' W 074°09'0 0.0
2017-Sep-13 21:59N 40°40' W 074°09'0 0.0
2017-Sep-13 21:28N 40°40' W 074°09'0 0.0
2017-Sep-13 20:58N 40°40' W 074°09'0 0.0
2017-Sep-13 20:22N 40°40' W 074°09'0 0.0
2017-Sep-13 19:58N 40°40' W 074°09'0 0.0
2017-Sep-13 19:30N 40°40' W 074°09'0 0.0
2017-Sep-13 18:54N 40°40' W 074°09'0 0.0
2017-Sep-13 18:30N 40°40' W 074°09'0 0.0
2017-Sep-13 18:00N 40°40' W 074°09'0 0.0
2017-Sep-13 17:30N 40°40' W 074°09'0 0.0
2017-Sep-13 16:56N 40°40' W 074°09'0 0.0
2017-Sep-13 16:29N 40°40' W 074°09'0 0.0
2017-Sep-13 16:00N 40°40' W 074°09'2 3.1
2017-Sep-13 15:30N 40°39' W 074°09'3 6.2
2017-Sep-13 15:00N 40°39' W 074°05'3 5.4
2017-Sep-13 14:30N 40°37' W 074°03'3 6.8
2017-Sep-13 14:01N 40°34' W 074°02'612.3
2017-Sep-13 13:31N 40°30' W 073°56'612.2
2017-Sep-13 13:00N 40°27' W 073°48'3 6.0
2017-Sep-13 12:31N 40°27' W 073°44'4 8.8
2017-Sep-13 12:00N 40°28' W 073°38'510.3
2017-Sep-13 11:30N 40°28' W 073°32'1 1.7
2017-Sep-13 11:00N 40°28' W 073°31'0 0.3
2017-Sep-13 10:30N 40°28' W 073°30'1 1.8
2017-Sep-13 10:00N 40°28' W 073°29'4 8.7
2017-Sep-13 09:30N 40°28' W 073°24'4 8.5
2017-Sep-13 09:00N 40°29' W 073°18'0 0.5
2017-Sep-13 08:30N 40°29' W 073°18'1 2.1
2017-Sep-13 08:00N 40°29' W 073°16'5 9.4
2017-Sep-13 07:31N 40°29' W 073°10'510.8
2017-Sep-13 07:00N 40°30' W 073°03'611.0
2017-Sep-13 06:30N 40°30' W 072°56'611.3
2017-Sep-13 06:00N 40°30' W 072°48'611.2
2017-Sep-13 05:31N 40°30' W 072°41'611.5
2017-Sep-13 05:00N 40°30' W 072°33'611.7
2017-Sep-13 04:30N 40°30' W 072°26'611.6
2017-Sep-13 04:00N 40°30' W 072°18'611.9
2017-Sep-13 03:30N 40°30' W 072°10'611.9
2017-Sep-13 03:01N 40°31' W 072°02'611.9
2017-Sep-13 02:30N 40°31' W 071°55'611.7
2017-Sep-13 02:01N 40°31' W 071°47'611.8
2017-Sep-13 01:31N 40°31' W 071°39'611.7
2017-Sep-13 01:01N 40°32' W 071°32'611.6
2017-Sep-13 00:30N 40°31' W 071°24'611.5
2017-Sep-13 00:00N 40°32' W 071°16'611.7
2017-Sep-12 23:30N 40°32' W 071°09'611.5
2017-Sep-12 23:00N 40°32' W 071°01'611.5
2017-Sep-12 22:30N 40°32' W 070°54'4 8.7
2017-Sep-12 22:00N 40°32' W 070°48'0 0.6
2017-Sep-12 21:30N 40°33' W 070°48'3 5.9
2017-Sep-12 21:00N 40°33' W 070°44'1511.6
2017-Sep-12 19:42N 40°33' W 070°24'2 9.0
2017-Sep-12 19:30N 40°33' W 070°21'6012.0
2017-Sep-12 14:30N 40°33' W 069°03'812.2
2017-Sep-12 13:51N 40°31' W 068°52'  

Dump ship's entire track history